sensor_id;sensor_type;location;lat;lon;timestamp;P1;durP1;ratioP1;P2;durP2;ratioP2
18754;SDS011;35061;47.664;9.166;2022-10-31T00:01:28;18.27;;;9.75;;
18754;SDS011;35061;47.664;9.166;2022-10-31T00:03:57;21.80;;;9.85;;
18754;SDS011;35061;47.664;9.166;2022-10-31T00:06:25;19.52;;;10.15;;
18754;SDS011;35061;47.664;9.166;2022-10-31T00:08:54;19.48;;;9.95;;
18754;SDS011;35061;47.664;9.166;2022-10-31T00:11:24;36.05;;;11.18;;
18754;SDS011;35061;47.664;9.166;2022-10-31T00:13:52;25.40;;;9.77;;
18754;SDS011;35061;47.664;9.166;2022-10-31T00:16:21;30.92;;;9.63;;
18754;SDS011;35061;47.664;9.166;2022-10-31T00:18:50;21.02;;;9.30;;
18754;SDS011;35061;47.664;9.166;2022-10-31T00:21:19;33.22;;;10.07;;
18754;SDS011;35061;47.664;9.166;2022-10-31T00:23:48;25.10;;;9.40;;
18754;SDS011;35061;47.664;9.166;2022-10-31T00:26:16;36.20;;;10.38;;
18754;SDS011;35061;47.664;9.166;2022-10-31T00:28:44;29.23;;;10.05;;
18754;SDS011;35061;47.664;9.166;2022-10-31T00:31:12;28.67;;;9.80;;
18754;SDS011;35061;47.664;9.166;2022-10-31T00:33:40;23.27;;;10.40;;
18754;SDS011;35061;47.664;9.166;2022-10-31T00:36:13;30.23;;;10.68;;
18754;SDS011;35061;47.664;9.166;2022-10-31T00:38:42;30.02;;;10.85;;
18754;SDS011;35061;47.664;9.166;2022-10-31T00:41:11;21.33;;;10.27;;
18754;SDS011;35061;47.664;9.166;2022-10-31T00:43:41;30.17;;;9.32;;
18754;SDS011;35061;47.664;9.166;2022-10-31T00:46:10;28.25;;;8.85;;
18754;SDS011;35061;47.664;9.166;2022-10-31T00:48:39;15.00;;;8.73;;
18754;SDS011;35061;47.664;9.166;2022-10-31T00:51:06;10.75;;;8.73;;
18754;SDS011;35061;47.664;9.166;2022-10-31T00:53:34;18.30;;;8.25;;
18754;SDS011;35061;47.664;9.166;2022-10-31T00:56:02;31.90;;;9.30;;
18754;SDS011;35061;47.664;9.166;2022-10-31T00:58:30;30.30;;;9.95;;
18754;SDS011;35061;47.664;9.166;2022-10-31T01:00:58;25.83;;;9.25;;
18754;SDS011;35061;47.664;9.166;2022-10-31T01:03:30;35.08;;;9.15;;
18754;SDS011;35061;47.664;9.166;2022-10-31T01:06:00;27.52;;;7.80;;
18754;SDS011;35061;47.664;9.166;2022-10-31T01:08:39;19.27;;;8.70;;
18754;SDS011;35061;47.664;9.166;2022-10-31T01:11:14;29.05;;;8.20;;
18754;SDS011;35061;47.664;9.166;2022-10-31T01:13:51;25.33;;;8.07;;
18754;SDS011;35061;47.664;9.166;2022-10-31T01:16:20;19.12;;;7.55;;
18754;SDS011;35061;47.664;9.166;2022-10-31T01:18:50;16.35;;;7.45;;
18754;SDS011;35061;47.664;9.166;2022-10-31T01:21:19;18.67;;;8.05;;
18754;SDS011;35061;47.664;9.166;2022-10-31T01:23:54;38.90;;;9.15;;
18754;SDS011;35061;47.664;9.166;2022-10-31T01:26:26;29.60;;;8.70;;
18754;SDS011;35061;47.664;9.166;2022-10-31T01:28:58;17.65;;;8.85;;
18754;SDS011;35061;47.664;9.166;2022-10-31T01:31:33;17.30;;;8.13;;
18754;SDS011;35061;47.664;9.166;2022-10-31T01:34:02;21.02;;;8.90;;
18754;SDS011;35061;47.664;9.166;2022-10-31T01:36:34;22.83;;;9.48;;
18754;SDS011;35061;47.664;9.166;2022-10-31T01:39:05;12.75;;;8.45;;
18754;SDS011;35061;47.664;9.166;2022-10-31T01:41:35;24.52;;;8.57;;
18754;SDS011;35061;47.664;9.166;2022-10-31T01:49:21;17.30;;;10.13;;
18754;SDS011;35061;47.664;9.166;2022-10-31T01:55:02;20.30;;;9.32;;
18754;SDS011;35061;47.664;9.166;2022-10-31T01:57:32;23.15;;;9.15;;
18754;SDS011;35061;47.664;9.166;2022-10-31T02:00:04;11.40;;;9.55;;
18754;SDS011;35061;47.664;9.166;2022-10-31T02:02:34;17.73;;;10.18;;
18754;SDS011;35061;47.664;9.166;2022-10-31T02:05:04;25.90;;;9.95;;
18754;SDS011;35061;47.664;9.166;2022-10-31T02:07:43;25.45;;;10.77;;
18754;SDS011;35061;47.664;9.166;2022-10-31T02:10:17;27.77;;;9.90;;
18754;SDS011;35061;47.664;9.166;2022-10-31T02:12:49;22.42;;;9.80;;
18754;SDS011;35061;47.664;9.166;2022-10-31T02:15:19;17.73;;;10.10;;
18754;SDS011;35061;47.664;9.166;2022-10-31T02:17:47;17.55;;;9.35;;
18754;SDS011;35061;47.664;9.166;2022-10-31T02:20:16;23.00;;;9.55;;
18754;SDS011;35061;47.664;9.166;2022-10-31T02:25:34;14.77;;;8.93;;
18754;SDS011;35061;47.664;9.166;2022-10-31T02:34:01;20.10;;;8.13;;
18754;SDS011;35061;47.664;9.166;2022-10-31T02:39:29;11.95;;;7.57;;
18754;SDS011;35061;47.664;9.166;2022-10-31T02:42:11;14.05;;;7.22;;
18754;SDS011;35061;47.664;9.166;2022-10-31T02:44:45;16.27;;;7.43;;
18754;SDS011;35061;47.664;9.166;2022-10-31T02:47:34;18.55;;;8.93;;
18754;SDS011;35061;47.664;9.166;2022-10-31T02:52:41;22.95;;;8.82;;
18754;SDS011;35061;47.664;9.166;2022-10-31T02:55:13;15.10;;;8.63;;
18754;SDS011;35061;47.664;9.166;2022-10-31T03:00:34;18.05;;;8.52;;
18754;SDS011;35061;47.664;9.166;2022-10-31T03:03:16;29.00;;;9.35;;
18754;SDS011;35061;47.664;9.166;2022-10-31T03:05:55;18.48;;;9.43;;
18754;SDS011;35061;47.664;9.166;2022-10-31T03:08:50;27.60;;;9.88;;
18754;SDS011;35061;47.664;9.166;2022-10-31T03:11:29;29.70;;;10.27;;
18754;SDS011;35061;47.664;9.166;2022-10-31T03:14:06;21.95;;;9.48;;
18754;SDS011;35061;47.664;9.166;2022-10-31T03:17:02;26.98;;;10.60;;
18754;SDS011;35061;47.664;9.166;2022-10-31T03:19:35;25.00;;;9.73;;
18754;SDS011;35061;47.664;9.166;2022-10-31T03:22:15;31.52;;;11.57;;
18754;SDS011;35061;47.664;9.166;2022-10-31T03:24:46;37.72;;;10.38;;
18754;SDS011;35061;47.664;9.166;2022-10-31T03:27:20;24.20;;;11.05;;
18754;SDS011;35061;47.664;9.166;2022-10-31T03:29:52;31.00;;;10.82;;
18754;SDS011;35061;47.664;9.166;2022-10-31T03:32:26;39.42;;;11.02;;
18754;SDS011;35061;47.664;9.166;2022-10-31T03:34:57;45.90;;;11.85;;
18754;SDS011;35061;47.664;9.166;2022-10-31T03:37:29;40.15;;;10.90;;
18754;SDS011;35061;47.664;9.166;2022-10-31T03:39:59;36.88;;;11.35;;
18754;SDS011;35061;47.664;9.166;2022-10-31T03:42:30;52.95;;;11.32;;
18754;SDS011;35061;47.664;9.166;2022-10-31T03:45:02;56.53;;;12.20;;
18754;SDS011;35061;47.664;9.166;2022-10-31T03:47:35;46.47;;;11.73;;
18754;SDS011;35061;47.664;9.166;2022-10-31T03:50:06;29.70;;;11.50;;
18754;SDS011;35061;47.664;9.166;2022-10-31T03:52:36;26.10;;;11.27;;
18754;SDS011;35061;47.664;9.166;2022-10-31T03:55:33;23.67;;;11.43;;
18754;SDS011;35061;47.664;9.166;2022-10-31T03:58:10;43.65;;;11.73;;
18754;SDS011;35061;47.664;9.166;2022-10-31T04:00:46;49.22;;;11.45;;
18754;SDS011;35061;47.664;9.166;2022-10-31T04:03:31;48.67;;;12.80;;
18754;SDS011;35061;47.664;9.166;2022-10-31T04:06:04;61.17;;;12.82;;
18754;SDS011;35061;47.664;9.166;2022-10-31T04:08:38;29.30;;;11.50;;
18754;SDS011;35061;47.664;9.166;2022-10-31T04:11:09;27.70;;;12.07;;
18754;SDS011;35061;47.664;9.166;2022-10-31T04:13:40;28.90;;;11.60;;
18754;SDS011;35061;47.664;9.166;2022-10-31T04:16:11;51.33;;;12.48;;
18754;SDS011;35061;47.664;9.166;2022-10-31T04:18:42;38.17;;;10.93;;
18754;SDS011;35061;47.664;9.166;2022-10-31T04:21:10;52.67;;;11.38;;
18754;SDS011;35061;47.664;9.166;2022-10-31T04:23:38;39.97;;;10.93;;
18754;SDS011;35061;47.664;9.166;2022-10-31T04:26:05;26.77;;;10.77;;
18754;SDS011;35061;47.664;9.166;2022-10-31T04:28:33;27.67;;;10.50;;
18754;SDS011;35061;47.664;9.166;2022-10-31T04:31:01;27.48;;;10.43;;
18754;SDS011;35061;47.664;9.166;2022-10-31T04:33:28;32.78;;;9.77;;
18754;SDS011;35061;47.664;9.166;2022-10-31T04:35:56;40.85;;;10.25;;
18754;SDS011;35061;47.664;9.166;2022-10-31T04:38:24;38.05;;;10.48;;
18754;SDS011;35061;47.664;9.166;2022-10-31T04:40:51;30.77;;;10.18;;
18754;SDS011;35061;47.664;9.166;2022-10-31T04:43:19;51.45;;;9.70;;
18754;SDS011;35061;47.664;9.166;2022-10-31T04:45:47;31.90;;;10.05;;
18754;SDS011;35061;47.664;9.166;2022-10-31T04:48:15;23.38;;;9.20;;
18754;SDS011;35061;47.664;9.166;2022-10-31T04:50:42;26.50;;;10.18;;
18754;SDS011;35061;47.664;9.166;2022-10-31T04:53:10;23.98;;;9.77;;
18754;SDS011;35061;47.664;9.166;2022-10-31T04:55:38;25.08;;;9.65;;
18754;SDS011;35061;47.664;9.166;2022-10-31T04:58:05;23.58;;;9.10;;
18754;SDS011;35061;47.664;9.166;2022-10-31T05:00:33;12.70;;;8.52;;
18754;SDS011;35061;47.664;9.166;2022-10-31T05:03:01;18.48;;;9.70;;
18754;SDS011;35061;47.664;9.166;2022-10-31T05:05:30;27.77;;;9.52;;
18754;SDS011;35061;47.664;9.166;2022-10-31T05:07:58;25.37;;;9.38;;
18754;SDS011;35061;47.664;9.166;2022-10-31T05:10:27;17.77;;;9.00;;
18754;SDS011;35061;47.664;9.166;2022-10-31T05:12:57;19.58;;;9.32;;
18754;SDS011;35061;47.664;9.166;2022-10-31T05:15:27;22.55;;;8.95;;
18754;SDS011;35061;47.664;9.166;2022-10-31T05:17:55;18.17;;;8.73;;
18754;SDS011;35061;47.664;9.166;2022-10-31T05:20:25;17.00;;;8.88;;
18754;SDS011;35061;47.664;9.166;2022-10-31T05:22:56;19.17;;;8.18;;
18754;SDS011;35061;47.664;9.166;2022-10-31T05:25:25;11.95;;;8.15;;
18754;SDS011;35061;47.664;9.166;2022-10-31T05:27:54;10.45;;;8.23;;
18754;SDS011;35061;47.664;9.166;2022-10-31T05:30:25;15.23;;;9.35;;
18754;SDS011;35061;47.664;9.166;2022-10-31T05:32:55;13.70;;;9.57;;
18754;SDS011;35061;47.664;9.166;2022-10-31T05:35:24;18.65;;;9.73;;
18754;SDS011;35061;47.664;9.166;2022-10-31T05:37:53;20.85;;;8.65;;
18754;SDS011;35061;47.664;9.166;2022-10-31T05:40:21;23.17;;;8.32;;
18754;SDS011;35061;47.664;9.166;2022-10-31T05:42:53;11.38;;;7.72;;
18754;SDS011;35061;47.664;9.166;2022-10-31T05:45:22;23.55;;;8.38;;
18754;SDS011;35061;47.664;9.166;2022-10-31T05:47:57;10.02;;;8.02;;
18754;SDS011;35061;47.664;9.166;2022-10-31T05:50:27;11.55;;;7.47;;
18754;SDS011;35061;47.664;9.166;2022-10-31T05:53:00;17.98;;;8.43;;
18754;SDS011;35061;47.664;9.166;2022-10-31T05:55:30;16.02;;;8.15;;
18754;SDS011;35061;47.664;9.166;2022-10-31T05:57:58;8.10;;;6.78;;
18754;SDS011;35061;47.664;9.166;2022-10-31T06:00:27;14.77;;;7.85;;
18754;SDS011;35061;47.664;9.166;2022-10-31T06:02:58;13.55;;;7.90;;
18754;SDS011;35061;47.664;9.166;2022-10-31T06:05:27;15.63;;;8.55;;
18754;SDS011;35061;47.664;9.166;2022-10-31T06:07:56;12.52;;;7.05;;
18754;SDS011;35061;47.664;9.166;2022-10-31T06:10:24;16.17;;;7.62;;
18754;SDS011;35061;47.664;9.166;2022-10-31T06:12:52;17.30;;;7.62;;
18754;SDS011;35061;47.664;9.166;2022-10-31T06:15:20;21.12;;;7.95;;
18754;SDS011;35061;47.664;9.166;2022-10-31T06:17:59;18.25;;;8.57;;
18754;SDS011;35061;47.664;9.166;2022-10-31T06:20:32;13.32;;;7.72;;
18754;SDS011;35061;47.664;9.166;2022-10-31T06:23:00;23.33;;;8.77;;
18754;SDS011;35061;47.664;9.166;2022-10-31T06:25:29;12.35;;;8.43;;
18754;SDS011;35061;47.664;9.166;2022-10-31T06:27:57;17.35;;;8.38;;
18754;SDS011;35061;47.664;9.166;2022-10-31T06:30:24;17.48;;;8.32;;
18754;SDS011;35061;47.664;9.166;2022-10-31T06:32:52;17.73;;;8.32;;
18754;SDS011;35061;47.664;9.166;2022-10-31T06:35:20;17.73;;;8.18;;
18754;SDS011;35061;47.664;9.166;2022-10-31T06:37:51;12.65;;;7.68;;
18754;SDS011;35061;47.664;9.166;2022-10-31T06:40:20;14.32;;;7.37;;
18754;SDS011;35061;47.664;9.166;2022-10-31T06:42:55;9.07;;;7.82;;
18754;SDS011;35061;47.664;9.166;2022-10-31T06:45:27;11.25;;;7.90;;
18754;SDS011;35061;47.664;9.166;2022-10-31T06:47:55;14.57;;;8.40;;
18754;SDS011;35061;47.664;9.166;2022-10-31T06:50:44;13.15;;;7.37;;
18754;SDS011;35061;47.664;9.166;2022-10-31T06:53:12;11.10;;;6.93;;
18754;SDS011;35061;47.664;9.166;2022-10-31T06:55:41;8.05;;;6.07;;
18754;SDS011;35061;47.664;9.166;2022-10-31T06:58:10;12.60;;;6.80;;
18754;SDS011;35061;47.664;9.166;2022-10-31T07:00:38;12.57;;;6.20;;
18754;SDS011;35061;47.664;9.166;2022-10-31T07:03:07;8.90;;;6.47;;
18754;SDS011;35061;47.664;9.166;2022-10-31T07:05:37;8.70;;;5.87;;
18754;SDS011;35061;47.664;9.166;2022-10-31T07:08:06;10.93;;;6.25;;
18754;SDS011;35061;47.664;9.166;2022-10-31T07:10:36;8.50;;;6.25;;
18754;SDS011;35061;47.664;9.166;2022-10-31T07:13:09;10.85;;;7.10;;
18754;SDS011;35061;47.664;9.166;2022-10-31T07:15:40;10.52;;;6.03;;
18754;SDS011;35061;47.664;9.166;2022-10-31T07:18:09;10.95;;;7.07;;
18754;SDS011;35061;47.664;9.166;2022-10-31T07:20:38;8.82;;;6.18;;
18754;SDS011;35061;47.664;9.166;2022-10-31T07:23:07;13.00;;;7.57;;
18754;SDS011;35061;47.664;9.166;2022-10-31T07:25:39;11.70;;;6.22;;
18754;SDS011;35061;47.664;9.166;2022-10-31T07:28:07;9.75;;;6.30;;
18754;SDS011;35061;47.664;9.166;2022-10-31T07:30:35;7.93;;;6.70;;
18754;SDS011;35061;47.664;9.166;2022-10-31T07:33:04;9.77;;;6.25;;
18754;SDS011;35061;47.664;9.166;2022-10-31T07:35:32;11.15;;;6.40;;
18754;SDS011;35061;47.664;9.166;2022-10-31T07:38:08;8.00;;;6.20;;
18754;SDS011;35061;47.664;9.166;2022-10-31T07:40:37;9.65;;;5.93;;
18754;SDS011;35061;47.664;9.166;2022-10-31T07:43:05;6.60;;;5.03;;
18754;SDS011;35061;47.664;9.166;2022-10-31T07:45:39;7.68;;;6.62;;
18754;SDS011;35061;47.664;9.166;2022-10-31T07:48:06;10.00;;;5.87;;
18754;SDS011;35061;47.664;9.166;2022-10-31T07:50:34;7.45;;;5.75;;
18754;SDS011;35061;47.664;9.166;2022-10-31T07:53:06;7.65;;;5.93;;
18754;SDS011;35061;47.664;9.166;2022-10-31T07:55:35;7.47;;;6.55;;
18754;SDS011;35061;47.664;9.166;2022-10-31T07:58:05;13.02;;;6.70;;
18754;SDS011;35061;47.664;9.166;2022-10-31T08:00:35;10.20;;;6.20;;
18754;SDS011;35061;47.664;9.166;2022-10-31T08:03:04;6.45;;;5.78;;
18754;SDS011;35061;47.664;9.166;2022-10-31T08:05:36;11.20;;;6.90;;
18754;SDS011;35061;47.664;9.166;2022-10-31T08:08:05;8.90;;;6.45;;
18754;SDS011;35061;47.664;9.166;2022-10-31T08:10:33;6.72;;;6.12;;
18754;SDS011;35061;47.664;9.166;2022-10-31T08:13:03;6.05;;;5.45;;
18754;SDS011;35061;47.664;9.166;2022-10-31T08:15:33;5.35;;;4.90;;
18754;SDS011;35061;47.664;9.166;2022-10-31T08:18:04;5.80;;;5.10;;
18754;SDS011;35061;47.664;9.166;2022-10-31T08:20:33;6.45;;;5.85;;
18754;SDS011;35061;47.664;9.166;2022-10-31T08:23:02;9.02;;;6.35;;
18754;SDS011;35061;47.664;9.166;2022-10-31T08:25:32;9.02;;;6.30;;
18754;SDS011;35061;47.664;9.166;2022-10-31T08:28:04;8.55;;;5.62;;
18754;SDS011;35061;47.664;9.166;2022-10-31T08:30:34;8.02;;;6.07;;
18754;SDS011;35061;47.664;9.166;2022-10-31T08:33:08;8.05;;;6.28;;
18754;SDS011;35061;47.664;9.166;2022-10-31T08:35:38;12.65;;;7.32;;
18754;SDS011;35061;47.664;9.166;2022-10-31T08:38:08;13.25;;;7.43;;
18754;SDS011;35061;47.664;9.166;2022-10-31T08:40:36;7.78;;;6.97;;
18754;SDS011;35061;47.664;9.166;2022-10-31T08:43:06;10.32;;;7.12;;
18754;SDS011;35061;47.664;9.166;2022-10-31T08:45:38;8.65;;;6.70;;
18754;SDS011;35061;47.664;9.166;2022-10-31T08:48:08;15.55;;;7.45;;
18754;SDS011;35061;47.664;9.166;2022-10-31T08:50:37;8.10;;;6.70;;
18754;SDS011;35061;47.664;9.166;2022-10-31T08:53:06;9.43;;;7.15;;
18754;SDS011;35061;47.664;9.166;2022-10-31T08:55:37;7.18;;;6.55;;
18754;SDS011;35061;47.664;9.166;2022-10-31T08:58:07;9.98;;;6.75;;
18754;SDS011;35061;47.664;9.166;2022-10-31T09:00:39;8.23;;;7.07;;
18754;SDS011;35061;47.664;9.166;2022-10-31T09:03:12;7.10;;;6.40;;
18754;SDS011;35061;47.664;9.166;2022-10-31T09:05:45;7.47;;;6.78;;
18754;SDS011;35061;47.664;9.166;2022-10-31T09:08:13;12.20;;;7.97;;
18754;SDS011;35061;47.664;9.166;2022-10-31T09:10:42;12.70;;;7.18;;
18754;SDS011;35061;47.664;9.166;2022-10-31T09:13:14;8.23;;;7.35;;
18754;SDS011;35061;47.664;9.166;2022-10-31T09:15:44;11.95;;;6.97;;
18754;SDS011;35061;47.664;9.166;2022-10-31T09:18:14;10.57;;;7.93;;
18754;SDS011;35061;47.664;9.166;2022-10-31T09:20:44;10.52;;;7.90;;
18754;SDS011;35061;47.664;9.166;2022-10-31T09:23:13;10.43;;;7.78;;
18754;SDS011;35061;47.664;9.166;2022-10-31T09:25:43;8.68;;;7.72;;
18754;SDS011;35061;47.664;9.166;2022-10-31T09:28:16;15.60;;;8.40;;
18754;SDS011;35061;47.664;9.166;2022-10-31T09:30:47;12.13;;;8.35;;
18754;SDS011;35061;47.664;9.166;2022-10-31T09:33:16;12.05;;;8.82;;
18754;SDS011;35061;47.664;9.166;2022-10-31T09:35:44;12.43;;;9.48;;
18754;SDS011;35061;47.664;9.166;2022-10-31T09:38:13;12.93;;;9.52;;
18754;SDS011;35061;47.664;9.166;2022-10-31T09:40:52;10.38;;;8.45;;
18754;SDS011;35061;47.664;9.166;2022-10-31T09:52:12;11.12;;;8.82;;
18754;SDS011;35061;47.664;9.166;2022-10-31T09:54:48;17.45;;;10.60;;
18754;SDS011;35061;47.664;9.166;2022-10-31T09:57:22;14.07;;;10.50;;
18754;SDS011;35061;47.664;9.166;2022-10-31T09:59:54;11.48;;;10.10;;
18754;SDS011;35061;47.664;9.166;2022-10-31T10:02:43;14.07;;;11.55;;
18754;SDS011;35061;47.664;9.166;2022-10-31T10:05:17;11.93;;;9.98;;
18754;SDS011;35061;47.664;9.166;2022-10-31T10:08:05;13.25;;;10.32;;
18754;SDS011;35061;47.664;9.166;2022-10-31T10:16:45;15.40;;;10.75;;
18754;SDS011;35061;47.664;9.166;2022-10-31T10:25:22;21.77;;;12.63;;
18754;SDS011;35061;47.664;9.166;2022-10-31T10:30:33;13.25;;;11.25;;
18754;SDS011;35061;47.664;9.166;2022-10-31T10:33:57;14.43;;;11.02;;
18754;SDS011;35061;47.664;9.166;2022-10-31T10:36:01;15.85;;;11.88;;
18754;SDS011;35061;47.664;9.166;2022-10-31T10:41:22;14.87;;;11.95;;
18754;SDS011;35061;47.664;9.166;2022-10-31T10:43:56;14.63;;;11.45;;
18754;SDS011;35061;47.664;9.166;2022-10-31T10:46:39;16.08;;;12.85;;
18754;SDS011;35061;47.664;9.166;2022-10-31T10:52:31;16.90;;;12.40;;
18754;SDS011;35061;47.664;9.166;2022-10-31T11:00:27;19.30;;;13.70;;
18754;SDS011;35061;47.664;9.166;2022-10-31T11:02:59;15.57;;;12.07;;
18754;SDS011;35061;47.664;9.166;2022-10-31T11:05:50;15.98;;;12.88;;
18754;SDS011;35061;47.664;9.166;2022-10-31T11:08:33;14.25;;;12.68;;
18754;SDS011;35061;47.664;9.166;2022-10-31T11:11:03;19.62;;;14.70;;
18754;SDS011;35061;47.664;9.166;2022-10-31T11:13:48;16.90;;;13.27;;
18754;SDS011;35061;47.664;9.166;2022-10-31T11:18:54;17.67;;;13.13;;
18754;SDS011;35061;47.664;9.166;2022-10-31T11:21:34;16.70;;;13.23;;
18754;SDS011;35061;47.664;9.166;2022-10-31T11:24:14;18.37;;;13.77;;
18754;SDS011;35061;47.664;9.166;2022-10-31T11:26:44;18.75;;;14.85;;
18754;SDS011;35061;47.664;9.166;2022-10-31T11:29:14;18.92;;;13.25;;
18754;SDS011;35061;47.664;9.166;2022-10-31T11:31:43;16.65;;;13.00;;
18754;SDS011;35061;47.664;9.166;2022-10-31T11:34:14;17.58;;;12.80;;
18754;SDS011;35061;47.664;9.166;2022-10-31T11:36:49;17.77;;;13.55;;
18754;SDS011;35061;47.664;9.166;2022-10-31T11:39:18;20.62;;;13.93;;
18754;SDS011;35061;47.664;9.166;2022-10-31T11:41:50;24.23;;;14.35;;
18754;SDS011;35061;47.664;9.166;2022-10-31T11:44:24;17.55;;;14.07;;
18754;SDS011;35061;47.664;9.166;2022-10-31T11:46:56;17.83;;;14.05;;
18754;SDS011;35061;47.664;9.166;2022-10-31T11:49:36;19.75;;;14.80;;
18754;SDS011;35061;47.664;9.166;2022-10-31T11:52:28;17.40;;;14.32;;
18754;SDS011;35061;47.664;9.166;2022-10-31T11:54:58;17.37;;;13.45;;
18754;SDS011;35061;47.664;9.166;2022-10-31T11:57:32;19.50;;;14.38;;
18754;SDS011;35061;47.664;9.166;2022-10-31T12:03:06;24.92;;;14.07;;
18754;SDS011;35061;47.664;9.166;2022-10-31T12:05:41;17.33;;;12.40;;
18754;SDS011;35061;47.664;9.166;2022-10-31T12:08:12;15.73;;;12.68;;
18754;SDS011;35061;47.664;9.166;2022-10-31T12:21:56;15.35;;;13.20;;
18754;SDS011;35061;47.664;9.166;2022-10-31T12:58:53;13.57;;;12.10;;
18754;SDS011;35061;47.664;9.166;2022-10-31T13:01:33;14.32;;;12.82;;
18754;SDS011;35061;47.664;9.166;2022-10-31T13:04:12;15.95;;;12.63;;
18754;SDS011;35061;47.664;9.166;2022-10-31T13:06:49;15.15;;;12.07;;
18754;SDS011;35061;47.664;9.166;2022-10-31T13:09:23;13.90;;;12.37;;
18754;SDS011;35061;47.664;9.166;2022-10-31T13:11:58;13.13;;;11.73;;
18754;SDS011;35061;47.664;9.166;2022-10-31T13:17:46;15.60;;;13.02;;
18754;SDS011;35061;47.664;9.166;2022-10-31T13:22:49;12.90;;;11.50;;
18754;SDS011;35061;47.664;9.166;2022-10-31T13:25:25;15.07;;;11.32;;
18754;SDS011;35061;47.664;9.166;2022-10-31T13:28:01;12.70;;;11.38;;
18754;SDS011;35061;47.664;9.166;2022-10-31T13:30:33;13.35;;;11.35;;
18754;SDS011;35061;47.664;9.166;2022-10-31T13:33:09;14.93;;;12.60;;
18754;SDS011;35061;47.664;9.166;2022-10-31T13:35:46;12.75;;;11.35;;
18754;SDS011;35061;47.664;9.166;2022-10-31T13:44:01;21.25;;;15.55;;
18754;SDS011;35061;47.664;9.166;2022-10-31T13:46:37;20.52;;;16.85;;
18754;SDS011;35061;47.664;9.166;2022-10-31T13:54:47;20.73;;;16.30;;
18754;SDS011;35061;47.664;9.166;2022-10-31T14:02:48;18.83;;;15.85;;
18754;SDS011;35061;47.664;9.166;2022-10-31T14:07:58;21.52;;;16.55;;
18754;SDS011;35061;47.664;9.166;2022-10-31T14:13:07;20.45;;;15.95;;
18754;SDS011;35061;47.664;9.166;2022-10-31T14:15:42;22.62;;;16.67;;
18754;SDS011;35061;47.664;9.166;2022-10-31T14:18:28;18.83;;;15.30;;
18754;SDS011;35061;47.664;9.166;2022-10-31T14:23:51;19.62;;;16.02;;
18754;SDS011;35061;47.664;9.166;2022-10-31T14:28:55;21.50;;;15.40;;
18754;SDS011;35061;47.664;9.166;2022-10-31T14:31:37;22.08;;;15.05;;
18754;SDS011;35061;47.664;9.166;2022-10-31T14:34:28;20.33;;;16.75;;
18754;SDS011;35061;47.664;9.166;2022-10-31T14:50:37;25.00;;;15.02;;
18754;SDS011;35061;47.664;9.166;2022-10-31T14:53:17;26.42;;;14.57;;
18754;SDS011;35061;47.664;9.166;2022-10-31T14:55:58;26.55;;;15.98;;
18754;SDS011;35061;47.664;9.166;2022-10-31T14:58:39;25.92;;;15.18;;
18754;SDS011;35061;47.664;9.166;2022-10-31T15:01:21;27.83;;;14.02;;
18754;SDS011;35061;47.664;9.166;2022-10-31T15:03:50;27.95;;;14.38;;
18754;SDS011;35061;47.664;9.166;2022-10-31T15:06:42;25.92;;;12.63;;
18754;SDS011;35061;47.664;9.166;2022-10-31T15:11:51;39.33;;;12.77;;
18754;SDS011;35061;47.664;9.166;2022-10-31T15:14:24;39.47;;;12.75;;
18754;SDS011;35061;47.664;9.166;2022-10-31T15:16:57;28.25;;;12.98;;
18754;SDS011;35061;47.664;9.166;2022-10-31T15:19:29;41.80;;;13.15;;
18754;SDS011;35061;47.664;9.166;2022-10-31T15:21:59;22.23;;;11.38;;
18754;SDS011;35061;47.664;9.166;2022-10-31T15:24:30;36.58;;;10.23;;
18754;SDS011;35061;47.664;9.166;2022-10-31T15:27:04;22.20;;;10.32;;
18754;SDS011;35061;47.664;9.166;2022-10-31T15:29:32;24.37;;;10.68;;
18754;SDS011;35061;47.664;9.166;2022-10-31T15:32:01;26.60;;;10.13;;
18754;SDS011;35061;47.664;9.166;2022-10-31T15:34:43;23.98;;;11.05;;
18754;SDS011;35061;47.664;9.166;2022-10-31T15:37:12;29.83;;;10.25;;
18754;SDS011;35061;47.664;9.166;2022-10-31T15:39:42;21.62;;;9.38;;
18754;SDS011;35061;47.664;9.166;2022-10-31T15:45:33;30.98;;;9.70;;
18754;SDS011;35061;47.664;9.166;2022-10-31T15:47:44;33.53;;;9.98;;
18754;SDS011;35061;47.664;9.166;2022-10-31T15:50:21;34.08;;;10.98;;
18754;SDS011;35061;47.664;9.166;2022-10-31T15:52:54;38.78;;;11.63;;
18754;SDS011;35061;47.664;9.166;2022-10-31T15:55:23;30.15;;;10.27;;
18754;SDS011;35061;47.664;9.166;2022-10-31T15:58:03;28.48;;;9.80;;
18754;SDS011;35061;47.664;9.166;2022-10-31T16:00:38;24.33;;;10.07;;
18754;SDS011;35061;47.664;9.166;2022-10-31T16:10:53;24.77;;;11.48;;
18754;SDS011;35061;47.664;9.166;2022-10-31T16:13:24;32.53;;;11.35;;
18754;SDS011;35061;47.664;9.166;2022-10-31T16:16:10;22.55;;;11.43;;
18754;SDS011;35061;47.664;9.166;2022-10-31T16:19:00;24.85;;;10.48;;
18754;SDS011;35061;47.664;9.166;2022-10-31T16:21:34;20.48;;;10.70;;
18754;SDS011;35061;47.664;9.166;2022-10-31T16:24:05;23.20;;;11.10;;
18754;SDS011;35061;47.664;9.166;2022-10-31T16:26:54;22.95;;;11.95;;
18754;SDS011;35061;47.664;9.166;2022-10-31T16:29:41;24.85;;;11.85;;
18754;SDS011;35061;47.664;9.166;2022-10-31T16:34:57;37.83;;;12.32;;
18754;SDS011;35061;47.664;9.166;2022-10-31T16:37:43;20.55;;;10.50;;
18754;SDS011;35061;47.664;9.166;2022-10-31T16:40:11;17.98;;;10.15;;
18754;SDS011;35061;47.664;9.166;2022-10-31T16:42:41;22.35;;;11.05;;
18754;SDS011;35061;47.664;9.166;2022-10-31T16:45:18;25.50;;;11.35;;
18754;SDS011;35061;47.664;9.166;2022-10-31T16:47:47;18.92;;;12.10;;
18754;SDS011;35061;47.664;9.166;2022-10-31T16:50:22;29.20;;;12.35;;
18754;SDS011;35061;47.664;9.166;2022-10-31T16:52:52;22.83;;;11.93;;
18754;SDS011;35061;47.664;9.166;2022-10-31T16:55:59;15.40;;;10.80;;
18754;SDS011;35061;47.664;9.166;2022-10-31T16:58:29;36.90;;;12.85;;
18754;SDS011;35061;47.664;9.166;2022-10-31T17:01:00;21.77;;;13.02;;
18754;SDS011;35061;47.664;9.166;2022-10-31T17:03:31;19.23;;;13.00;;
18754;SDS011;35061;47.664;9.166;2022-10-31T17:05:59;29.27;;;14.68;;
18754;SDS011;35061;47.664;9.166;2022-10-31T17:08:26;23.98;;;13.55;;
18754;SDS011;35061;47.664;9.166;2022-10-31T17:10:54;28.10;;;13.82;;
18754;SDS011;35061;47.664;9.166;2022-10-31T17:13:24;27.15;;;12.90;;
18754;SDS011;35061;47.664;9.166;2022-10-31T17:15:56;31.00;;;14.02;;
18754;SDS011;35061;47.664;9.166;2022-10-31T17:18:27;16.08;;;13.52;;
18754;SDS011;35061;47.664;9.166;2022-10-31T17:20:55;21.50;;;13.68;;
18754;SDS011;35061;47.664;9.166;2022-10-31T17:23:26;34.35;;;14.45;;
18754;SDS011;35061;47.664;9.166;2022-10-31T17:25:55;22.13;;;13.88;;
18754;SDS011;35061;47.664;9.166;2022-10-31T17:28:23;35.17;;;14.48;;
18754;SDS011;35061;47.664;9.166;2022-10-31T17:30:53;25.70;;;14.05;;
18754;SDS011;35061;47.664;9.166;2022-10-31T17:33:22;30.48;;;14.02;;
18754;SDS011;35061;47.664;9.166;2022-10-31T17:35:49;25.40;;;14.50;;
18754;SDS011;35061;47.664;9.166;2022-10-31T17:38:18;22.65;;;14.65;;
18754;SDS011;35061;47.664;9.166;2022-10-31T17:40:45;30.25;;;14.63;;
18754;SDS011;35061;47.664;9.166;2022-10-31T17:43:13;25.45;;;13.50;;
18754;SDS011;35061;47.664;9.166;2022-10-31T17:45:41;23.10;;;14.90;;
18754;SDS011;35061;47.664;9.166;2022-10-31T17:48:10;26.58;;;15.95;;
18754;SDS011;35061;47.664;9.166;2022-10-31T17:50:38;22.52;;;14.63;;
18754;SDS011;35061;47.664;9.166;2022-10-31T17:53:06;25.92;;;14.85;;